Meteo Giornale » Osservazioni meteo Croazia » Rijeka-Omisalj

ore: 04:30 - Osservazioni Meteo Rijeka-Omisalj
Lat. 45° 13' N Lon. 14° 35' E Alt. 85 metri s.l.m.

molto_nuvoloso Europe/Zagreb

16 °C

Molto Nuvoloso

Temp. 24 Ore

16 °C

24 °C

Nord

3.7 Km/h

Dew point 15 °C

Umidità 93 %

Visibilità  10 Km

Il sole sorge alle ore 06:45

Il sole tramonta alle ore 19:04

Data e Ora Cielo e Fenomeni T °C DP °C Um. % Pres. hPa Vis. km Vento km/h
Oggi h: 04:30 molto_nuvoloso Molto Nuvoloso 16 15 93 1010 10 N 3.7
Oggi h: 04:00 molto_nuvoloso Molto Nuvoloso 17 16 93 1010 10 N 7.4
Oggi h: 03:30 coperto_pioggia Pioggia Debole 16 15 93 1010 10 NE 7.4
Oggi h: 03:00 coperto_pioggia Pioggia Debole 17 15 88 1010 10 N 5.5
Oggi h: 02:30 coperto_pioggia Pioggia Debole 17 15 88 1010 10 E/SE 16.7
Oggi h: 02:00 coperto_pioggia Pioggia Debole 17 16 93 1011 10 SE 16.7
Oggi h: 01:30 coperto_pioggia Pioggia 17 16 93 1010 10 E/SE 18.5
Oggi h: 01:00 coperto_pioggia Pioggia Debole 17 16 93 1011 10 E/SE 22.2
Oggi h: 00:30 coperto_pioggia Pioggia Debole 17 16 93 1010 10 E/SE 24
Oggi h: 00:00 coperto_pioggia Pioggia Debole 17 16 93 1010 10 SE 22.2
Ieri h: 23:30 coperto_pioggia Pioggia 17 17 100 1011 10 SE 18.5
Ieri h: 21:30 nuvoloso_temporali Temporale con Pioggia Debole 18 17 93 1010 10 E 16.7
Ieri h: 20:30 coperto_pioggia Pioggia Debole 18 17 93 1010 10 S 9.3
Ieri h: 20:00 nuvoloso_temporali Temporale con Pioggia 20 19 93 1011 10 E/SE 9.3
Ieri h: 19:30 molto_nuvoloso Molto Nuvoloso 21 18 82 1009 10 S/SE 9.3
Ieri h: 19:00 molto_nuvoloso Molto Nuvoloso 21 18 82 1009 10 E 7.4
Ieri h: 18:30 molto_nuvoloso Molto Nuvoloso 22 18 78 1010 10 E/SE 9.3
Ieri h: 18:00 molto_nuvoloso Molto Nuvoloso 22 18 78 1010 10 E/SE 9.3
Ieri h: 17:30 molto_nuvoloso Molto Nuvoloso 22 18 78 1010 10 E/SE 9.3
Ieri h: 17:00 molto_nuvoloso Molto Nuvoloso 22 18 78 1010 10 E/SE 11.1
Ieri h: 16:30 coperto_pioggia Pioggia Debole 22 18 78 1010 10 SE 11.1
Ieri h: 16:00 coperto_pioggia Pioggia Debole 22 18 78 1011 10 N 5.5
Ieri h: 15:30 molto_nuvoloso Molto Nuvoloso 22 17 73 1011 10 E/SE 13
Ieri h: 14:30 molto_nuvoloso Molto Nuvoloso 23 16 64 1012 10 E/SE 11.1
Ieri h: 14:00 molto_nuvoloso Molto Nuvoloso 23 16 64 1012 10 E/SE 11.1
Ieri h: 13:30 molto_nuvoloso Molto Nuvoloso 23 16 64 1012 10 E/SE 13
Ieri h: 13:00 molto_nuvoloso Molto Nuvoloso 22 16 68 1012 10 E/SE 13
Ieri h: 12:30 molto_nuvoloso Molto Nuvoloso 22 16 68 1013 10 E/SE 11.1
Ieri h: 12:00 molto_nuvoloso Molto Nuvoloso 24 16 60 1013 10 N 5.5
Ieri h: 11:30 nuvoloso Nuvoloso 21 15 68 1013 10 N 5.5
Ieri h: 11:00 nuvoloso Nuvoloso 22 15 64 1013 10 N/NO 7.4
Ieri h: 10:30 nuvoloso Nuvoloso 21 15 68 1013 10 N 0
Ieri h: 10:00 nuvoloso Nuvoloso 21 15 68 1013 10 N 0
Ieri h: 09:30 nuvoloso Nuvoloso 21 15 68 1013 10 N 3.7
Ieri h: 09:00 nuvoloso Nuvoloso 21 14 64 1012 10 N 5.5
Ieri h: 08:30 nuvoloso Nuvoloso 19 15 77 1012 10 N 0
Ieri h: 08:00 nuvoloso Nuvoloso 18 14 77 1013 10 N 0
Ieri h: 07:30 nuvoloso Nuvoloso 19 14 72 1012 10 N 5.5
Ieri h: 07:00 nuvoloso Nuvoloso 18 14 77 1012 10 N/NE 7.4
Ieri h: 06:30 poco_nuvoloso Poco Nuvoloso 17 14 82 1012 10 N 5.5
Ieri h: 06:00 poco_nuvoloso Poco Nuvoloso 17 13 77 1012 10 E/SE 7.4
Ieri h: 05:30 poco_nuvoloso Poco Nuvoloso 17 13 77 1012 10 N 5.5
Ieri h: 05:00 poco_nuvoloso Poco Nuvoloso 17 14 82 1012 10 N 5.5